sensor_id;sensor_type;location;lat;lon;timestamp;P1;durP1;ratioP1;P2;durP2;ratioP2
69594;SDS011;56800;52.142;5.364;2024-03-07T00:00:51;45.03;;;21.95;;
69594;SDS011;56800;52.142;5.364;2024-03-07T00:03:20;41.33;;;21.23;;
69594;SDS011;56800;52.142;5.364;2024-03-07T00:05:47;44.78;;;24.40;;
69594;SDS011;56800;52.142;5.364;2024-03-07T00:08:14;48.23;;;23.33;;
69594;SDS011;56800;52.142;5.364;2024-03-07T00:10:42;41.60;;;22.42;;
69594;SDS011;56800;52.142;5.364;2024-03-07T00:13:10;47.00;;;23.25;;
69594;SDS011;56800;52.142;5.364;2024-03-07T00:15:39;42.85;;;22.27;;
69594;SDS011;56800;52.142;5.364;2024-03-07T00:18:07;39.92;;;21.48;;
69594;SDS011;56800;52.142;5.364;2024-03-07T00:20:37;46.60;;;23.67;;
69594;SDS011;56800;52.142;5.364;2024-03-07T00:23:04;47.22;;;23.92;;
69594;SDS011;56800;52.142;5.364;2024-03-07T00:25:31;46.22;;;23.48;;
69594;SDS011;56800;52.142;5.364;2024-03-07T00:27:58;47.58;;;24.02;;
69594;SDS011;56800;52.142;5.364;2024-03-07T00:30:29;49.22;;;24.75;;
69594;SDS011;56800;52.142;5.364;2024-03-07T00:32:56;47.13;;;23.87;;
69594;SDS011;56800;52.142;5.364;2024-03-07T00:35:24;47.67;;;23.95;;
69594;SDS011;56800;52.142;5.364;2024-03-07T00:37:51;43.55;;;23.23;;
69594;SDS011;56800;52.142;5.364;2024-03-07T00:40:18;47.03;;;22.88;;
69594;SDS011;56800;52.142;5.364;2024-03-07T00:42:45;49.05;;;24.50;;
69594;SDS011;56800;52.142;5.364;2024-03-07T00:45:12;45.07;;;23.07;;
69594;SDS011;56800;52.142;5.364;2024-03-07T00:47:39;46.88;;;24.40;;
69594;SDS011;56800;52.142;5.364;2024-03-07T00:50:06;43.67;;;24.38;;
69594;SDS011;56800;52.142;5.364;2024-03-07T00:52:36;50.03;;;23.45;;
69594;SDS011;56800;52.142;5.364;2024-03-07T00:55:03;52.10;;;24.42;;
69594;SDS011;56800;52.142;5.364;2024-03-07T00:57:31;40.43;;;22.40;;
69594;SDS011;56800;52.142;5.364;2024-03-07T00:59:58;49.13;;;23.60;;
69594;SDS011;56800;52.142;5.364;2024-03-07T01:02:25;47.88;;;24.25;;
69594;SDS011;56800;52.142;5.364;2024-03-07T01:04:52;49.40;;;24.25;;
69594;SDS011;56800;52.142;5.364;2024-03-07T01:07:20;47.60;;;23.15;;
69594;SDS011;56800;52.142;5.364;2024-03-07T01:09:50;50.13;;;23.17;;
69594;SDS011;56800;52.142;5.364;2024-03-07T01:12:17;40.92;;;22.17;;
69594;SDS011;56800;52.142;5.364;2024-03-07T01:14:46;48.70;;;24.15;;
69594;SDS011;56800;52.142;5.364;2024-03-07T01:17:13;48.45;;;23.85;;
69594;SDS011;56800;52.142;5.364;2024-03-07T01:19:40;47.35;;;24.42;;
69594;SDS011;56800;52.142;5.364;2024-03-07T01:22:07;46.20;;;24.17;;
69594;SDS011;56800;52.142;5.364;2024-03-07T01:24:34;46.45;;;23.08;;
69594;SDS011;56800;52.142;5.364;2024-03-07T01:27:01;48.42;;;25.02;;
69594;SDS011;56800;52.142;5.364;2024-03-07T01:29:29;47.03;;;24.08;;
69594;SDS011;56800;52.142;5.364;2024-03-07T01:31:57;45.20;;;24.33;;
69594;SDS011;56800;52.142;5.364;2024-03-07T01:34:24;49.57;;;23.60;;
69594;SDS011;56800;52.142;5.364;2024-03-07T01:36:51;46.88;;;24.20;;
69594;SDS011;56800;52.142;5.364;2024-03-07T01:39:18;49.10;;;23.42;;
69594;SDS011;56800;52.142;5.364;2024-03-07T01:41:45;52.50;;;24.08;;
69594;SDS011;56800;52.142;5.364;2024-03-07T01:44:12;51.47;;;25.63;;
69594;SDS011;56800;52.142;5.364;2024-03-07T01:46:39;43.73;;;22.60;;
69594;SDS011;56800;52.142;5.364;2024-03-07T01:49:08;49.05;;;24.42;;
69594;SDS011;56800;52.142;5.364;2024-03-07T01:51:36;51.55;;;24.80;;
69594;SDS011;56800;52.142;5.364;2024-03-07T01:54:03;51.55;;;24.63;;
69594;SDS011;56800;52.142;5.364;2024-03-07T01:56:33;48.97;;;24.38;;
69594;SDS011;56800;52.142;5.364;2024-03-07T01:59:00;51.93;;;24.87;;
69594;SDS011;56800;52.142;5.364;2024-03-07T02:01:28;50.58;;;24.85;;
69594;SDS011;56800;52.142;5.364;2024-03-07T02:03:55;52.15;;;25.67;;
69594;SDS011;56800;52.142;5.364;2024-03-07T02:06:23;51.42;;;24.52;;
69594;SDS011;56800;52.142;5.364;2024-03-07T02:08:50;48.75;;;25.10;;
69594;SDS011;56800;52.142;5.364;2024-03-07T02:11:17;49.83;;;25.10;;
69594;SDS011;56800;52.142;5.364;2024-03-07T02:13:44;52.50;;;24.90;;
69594;SDS011;56800;52.142;5.364;2024-03-07T02:16:12;55.33;;;26.35;;
69594;SDS011;56800;52.142;5.364;2024-03-07T02:18:39;49.88;;;24.23;;
69594;SDS011;56800;52.142;5.364;2024-03-07T02:21:07;49.83;;;25.25;;
69594;SDS011;56800;52.142;5.364;2024-03-07T02:23:35;59.40;;;27.40;;
69594;SDS011;56800;52.142;5.364;2024-03-07T02:26:02;55.25;;;26.77;;
69594;SDS011;56800;52.142;5.364;2024-03-07T02:28:29;56.22;;;28.15;;
69594;SDS011;56800;52.142;5.364;2024-03-07T02:30:56;55.33;;;26.70;;
69594;SDS011;56800;52.142;5.364;2024-03-07T02:33:23;52.47;;;25.83;;
69594;SDS011;56800;52.142;5.364;2024-03-07T02:35:50;55.40;;;27.13;;
69594;SDS011;56800;52.142;5.364;2024-03-07T02:38:17;59.33;;;26.67;;
69594;SDS011;56800;52.142;5.364;2024-03-07T02:40:45;58.63;;;28.08;;
69594;SDS011;56800;52.142;5.364;2024-03-07T02:43:13;57.63;;;26.70;;
69594;SDS011;56800;52.142;5.364;2024-03-07T02:45:39;58.80;;;26.90;;
69594;SDS011;56800;52.142;5.364;2024-03-07T02:48:06;51.50;;;26.63;;
69594;SDS011;56800;52.142;5.364;2024-03-07T02:50:36;55.30;;;27.73;;
69594;SDS011;56800;52.142;5.364;2024-03-07T02:53:06;55.33;;;25.88;;
69594;SDS011;56800;52.142;5.364;2024-03-07T02:55:33;55.33;;;26.25;;
69594;SDS011;56800;52.142;5.364;2024-03-07T02:58:00;58.72;;;26.27;;
69594;SDS011;56800;52.142;5.364;2024-03-07T03:00:27;52.73;;;26.50;;
69594;SDS011;56800;52.142;5.364;2024-03-07T03:02:56;51.15;;;24.73;;
69594;SDS011;56800;52.142;5.364;2024-03-07T03:05:23;60.95;;;27.17;;
69594;SDS011;56800;52.142;5.364;2024-03-07T03:07:50;58.00;;;27.63;;
69594;SDS011;56800;52.142;5.364;2024-03-07T03:10:24;56.22;;;26.38;;
69594;SDS011;56800;52.142;5.364;2024-03-07T03:12:59;49.23;;;23.83;;
69594;SDS011;56800;52.142;5.364;2024-03-07T03:15:28;51.40;;;24.60;;
69594;SDS011;56800;52.142;5.364;2024-03-07T03:17:55;56.75;;;27.00;;
69594;SDS011;56800;52.142;5.364;2024-03-07T03:20:26;55.03;;;26.35;;
69594;SDS011;56800;52.142;5.364;2024-03-07T03:23:01;50.07;;;24.97;;
69594;SDS011;56800;52.142;5.364;2024-03-07T03:25:45;53.20;;;25.42;;
69594;SDS011;56800;52.142;5.364;2024-03-07T03:28:14;48.75;;;24.95;;
69594;SDS011;56800;52.142;5.364;2024-03-07T03:30:41;54.30;;;25.92;;
69594;SDS011;56800;52.142;5.364;2024-03-07T03:33:09;56.00;;;26.92;;
69594;SDS011;56800;52.142;5.364;2024-03-07T03:35:36;54.77;;;27.50;;
69594;SDS011;56800;52.142;5.364;2024-03-07T03:38:04;48.80;;;25.85;;
69594;SDS011;56800;52.142;5.364;2024-03-07T03:40:32;50.08;;;23.33;;
69594;SDS011;56800;52.142;5.364;2024-03-07T03:43:00;51.70;;;25.55;;
69594;SDS011;56800;52.142;5.364;2024-03-07T03:45:27;53.38;;;24.65;;
69594;SDS011;56800;52.142;5.364;2024-03-07T03:47:54;48.37;;;24.87;;
69594;SDS011;56800;52.142;5.364;2024-03-07T03:50:21;50.17;;;24.23;;
69594;SDS011;56800;52.142;5.364;2024-03-07T03:52:51;51.42;;;26.33;;
69594;SDS011;56800;52.142;5.364;2024-03-07T03:55:18;52.50;;;25.35;;
69594;SDS011;56800;52.142;5.364;2024-03-07T03:57:47;49.75;;;25.80;;
69594;SDS011;56800;52.142;5.364;2024-03-07T04:00:15;51.97;;;23.40;;
69594;SDS011;56800;52.142;5.364;2024-03-07T04:02:43;45.75;;;23.52;;
69594;SDS011;56800;52.142;5.364;2024-03-07T04:05:17;52.15;;;24.63;;
69594;SDS011;56800;52.142;5.364;2024-03-07T04:07:45;56.88;;;25.23;;
69594;SDS011;56800;52.142;5.364;2024-03-07T04:10:14;49.15;;;24.35;;
69594;SDS011;56800;52.142;5.364;2024-03-07T04:12:43;50.50;;;25.57;;
69594;SDS011;56800;52.142;5.364;2024-03-07T04:15:11;46.72;;;24.30;;
69594;SDS011;56800;52.142;5.364;2024-03-07T04:17:44;45.65;;;23.25;;
69594;SDS011;56800;52.142;5.364;2024-03-07T04:20:13;46.08;;;23.20;;
69594;SDS011;56800;52.142;5.364;2024-03-07T04:22:44;50.40;;;23.98;;
69594;SDS011;56800;52.142;5.364;2024-03-07T04:25:11;48.57;;;24.53;;
69594;SDS011;56800;52.142;5.364;2024-03-07T04:27:38;48.55;;;23.92;;
69594;SDS011;56800;52.142;5.364;2024-03-07T04:30:06;50.67;;;24.92;;
69594;SDS011;56800;52.142;5.364;2024-03-07T04:32:38;44.33;;;22.83;;
69594;SDS011;56800;52.142;5.364;2024-03-07T04:35:06;56.00;;;25.05;;
69594;SDS011;56800;52.142;5.364;2024-03-07T04:37:40;45.70;;;23.73;;
69594;SDS011;56800;52.142;5.364;2024-03-07T04:40:07;44.05;;;23.52;;
69594;SDS011;56800;52.142;5.364;2024-03-07T04:42:44;47.63;;;23.38;;
69594;SDS011;56800;52.142;5.364;2024-03-07T04:45:18;46.13;;;23.20;;
69594;SDS011;56800;52.142;5.364;2024-03-07T04:47:46;58.27;;;25.13;;
69594;SDS011;56800;52.142;5.364;2024-03-07T04:50:14;43.58;;;22.45;;
69594;SDS011;56800;52.142;5.364;2024-03-07T04:52:45;49.45;;;24.02;;
69594;SDS011;56800;52.142;5.364;2024-03-07T04:55:14;46.97;;;24.17;;
69594;SDS011;56800;52.142;5.364;2024-03-07T04:57:41;45.30;;;22.95;;
69594;SDS011;56800;52.142;5.364;2024-03-07T05:00:09;47.07;;;24.13;;
69594;SDS011;56800;52.142;5.364;2024-03-07T05:02:46;45.30;;;24.25;;
69594;SDS011;56800;52.142;5.364;2024-03-07T05:05:15;45.33;;;23.92;;
69594;SDS011;56800;52.142;5.364;2024-03-07T05:07:49;46.63;;;24.58;;
69594;SDS011;56800;52.142;5.364;2024-03-07T05:10:17;43.17;;;22.75;;
69594;SDS011;56800;52.142;5.364;2024-03-07T05:12:44;49.47;;;23.07;;
69594;SDS011;56800;52.142;5.364;2024-03-07T05:15:11;45.88;;;23.17;;
69594;SDS011;56800;52.142;5.364;2024-03-07T05:17:38;48.67;;;23.98;;
69594;SDS011;56800;52.142;5.364;2024-03-07T05:20:06;49.78;;;23.63;;
69594;SDS011;56800;52.142;5.364;2024-03-07T05:22:37;41.60;;;22.98;;
69594;SDS011;56800;52.142;5.364;2024-03-07T05:25:11;46.70;;;23.67;;
69594;SDS011;56800;52.142;5.364;2024-03-07T05:27:38;44.55;;;22.35;;
69594;SDS011;56800;52.142;5.364;2024-03-07T05:30:05;43.30;;;22.95;;
69594;SDS011;56800;52.142;5.364;2024-03-07T05:32:36;44.10;;;23.10;;
69594;SDS011;56800;52.142;5.364;2024-03-07T05:35:04;44.03;;;23.07;;
69594;SDS011;56800;52.142;5.364;2024-03-07T05:37:33;49.20;;;23.15;;
69594;SDS011;56800;52.142;5.364;2024-03-07T05:40:00;44.92;;;23.05;;
69594;SDS011;56800;52.142;5.364;2024-03-07T05:42:29;43.42;;;23.35;;
69594;SDS011;56800;52.142;5.364;2024-03-07T05:44:58;46.28;;;22.35;;
69594;SDS011;56800;52.142;5.364;2024-03-07T05:47:25;44.47;;;23.63;;
69594;SDS011;56800;52.142;5.364;2024-03-07T05:49:52;45.70;;;23.48;;
69594;SDS011;56800;52.142;5.364;2024-03-07T05:52:19;43.95;;;23.65;;
69594;SDS011;56800;52.142;5.364;2024-03-07T05:54:46;46.72;;;23.98;;
69594;SDS011;56800;52.142;5.364;2024-03-07T05:57:13;44.30;;;23.15;;
69594;SDS011;56800;52.142;5.364;2024-03-07T05:59:40;47.40;;;23.63;;
69594;SDS011;56800;52.142;5.364;2024-03-07T06:02:07;49.42;;;23.80;;
69594;SDS011;56800;52.142;5.364;2024-03-07T06:04:34;43.20;;;22.35;;
69594;SDS011;56800;52.142;5.364;2024-03-07T06:07:01;46.45;;;24.60;;
69594;SDS011;56800;52.142;5.364;2024-03-07T06:09:27;52.72;;;24.55;;
69594;SDS011;56800;52.142;5.364;2024-03-07T06:11:54;45.70;;;24.50;;
69594;SDS011;56800;52.142;5.364;2024-03-07T06:14:21;47.70;;;23.90;;
69594;SDS011;56800;52.142;5.364;2024-03-07T06:16:50;53.78;;;25.02;;
69594;SDS011;56800;52.142;5.364;2024-03-07T06:19:19;49.20;;;24.58;;
69594;SDS011;56800;52.142;5.364;2024-03-07T06:21:45;49.13;;;25.33;;
69594;SDS011;56800;52.142;5.364;2024-03-07T06:24:12;56.20;;;26.30;;
69594;SDS011;56800;52.142;5.364;2024-03-07T06:26:41;48.00;;;23.65;;
69594;SDS011;56800;52.142;5.364;2024-03-07T06:29:14;52.30;;;26.33;;
69594;SDS011;56800;52.142;5.364;2024-03-07T06:31:42;51.65;;;24.90;;
69594;SDS011;56800;52.142;5.364;2024-03-07T06:34:12;49.08;;;23.75;;
69594;SDS011;56800;52.142;5.364;2024-03-07T06:36:39;50.67;;;26.20;;
69594;SDS011;56800;52.142;5.364;2024-03-07T06:39:09;52.50;;;26.20;;
69594;SDS011;56800;52.142;5.364;2024-03-07T06:41:39;53.08;;;26.15;;
69594;SDS011;56800;52.142;5.364;2024-03-07T06:44:06;50.17;;;26.10;;
69594;SDS011;56800;52.142;5.364;2024-03-07T06:46:36;52.28;;;26.73;;
69594;SDS011;56800;52.142;5.364;2024-03-07T06:49:03;55.27;;;27.70;;
69594;SDS011;56800;52.142;5.364;2024-03-07T06:51:32;55.15;;;27.70;;
69594;SDS011;56800;52.142;5.364;2024-03-07T06:53:59;55.28;;;26.85;;
69594;SDS011;56800;52.142;5.364;2024-03-07T06:56:26;54.22;;;26.90;;
69594;SDS011;56800;52.142;5.364;2024-03-07T06:58:53;55.03;;;26.43;;
69594;SDS011;56800;52.142;5.364;2024-03-07T07:01:20;51.83;;;26.35;;
69594;SDS011;56800;52.142;5.364;2024-03-07T07:03:47;53.45;;;27.73;;
69594;SDS011;56800;52.142;5.364;2024-03-07T07:06:15;51.85;;;26.77;;
69594;SDS011;56800;52.142;5.364;2024-03-07T07:08:43;55.00;;;27.27;;
69594;SDS011;56800;52.142;5.364;2024-03-07T07:11:11;54.37;;;27.13;;
69594;SDS011;56800;52.142;5.364;2024-03-07T07:13:39;55.33;;;27.42;;
69594;SDS011;56800;52.142;5.364;2024-03-07T07:16:06;48.22;;;25.23;;
69594;SDS011;56800;52.142;5.364;2024-03-07T07:18:33;51.42;;;26.48;;
69594;SDS011;56800;52.142;5.364;2024-03-07T07:21:02;53.13;;;26.43;;
69594;SDS011;56800;52.142;5.364;2024-03-07T07:23:30;57.15;;;25.73;;
69594;SDS011;56800;52.142;5.364;2024-03-07T07:25:57;48.67;;;26.00;;
69594;SDS011;56800;52.142;5.364;2024-03-07T07:28:24;47.45;;;25.20;;
69594;SDS011;56800;52.142;5.364;2024-03-07T07:30:51;49.63;;;24.15;;
69594;SDS011;56800;52.142;5.364;2024-03-07T07:33:17;42.45;;;24.35;;
69594;SDS011;56800;52.142;5.364;2024-03-07T07:35:45;45.55;;;22.90;;
69594;SDS011;56800;52.142;5.364;2024-03-07T07:38:12;49.28;;;25.35;;
69594;SDS011;56800;52.142;5.364;2024-03-07T07:40:42;44.88;;;23.80;;
69594;SDS011;56800;52.142;5.364;2024-03-07T07:43:10;44.43;;;23.40;;
69594;SDS011;56800;52.142;5.364;2024-03-07T07:45:54;40.97;;;23.02;;
69594;SDS011;56800;52.142;5.364;2024-03-07T07:48:21;39.03;;;22.25;;
69594;SDS011;56800;52.142;5.364;2024-03-07T07:50:49;41.00;;;22.60;;
69594;SDS011;56800;52.142;5.364;2024-03-07T07:53:19;43.15;;;21.90;;
69594;SDS011;56800;52.142;5.364;2024-03-07T07:55:50;41.27;;;23.87;;
69594;SDS011;56800;52.142;5.364;2024-03-07T07:58:17;41.35;;;23.10;;
69594;SDS011;56800;52.142;5.364;2024-03-07T08:00:44;40.38;;;23.10;;
69594;SDS011;56800;52.142;5.364;2024-03-07T08:03:11;44.20;;;22.73;;
69594;SDS011;56800;52.142;5.364;2024-03-07T08:05:40;38.05;;;22.58;;
69594;SDS011;56800;52.142;5.364;2024-03-07T08:08:08;37.83;;;21.07;;
69594;SDS011;56800;52.142;5.364;2024-03-07T08:10:37;35.83;;;21.10;;
69594;SDS011;56800;52.142;5.364;2024-03-07T08:13:07;37.15;;;21.65;;
69594;SDS011;56800;52.142;5.364;2024-03-07T08:15:39;34.90;;;20.95;;
69594;SDS011;56800;52.142;5.364;2024-03-07T08:18:06;32.88;;;19.70;;
69594;SDS011;56800;52.142;5.364;2024-03-07T08:20:38;35.77;;;19.80;;
69594;SDS011;56800;52.142;5.364;2024-03-07T08:23:08;34.92;;;19.48;;
69594;SDS011;56800;52.142;5.364;2024-03-07T08:25:35;32.45;;;19.02;;
69594;SDS011;56800;52.142;5.364;2024-03-07T08:28:02;31.70;;;18.70;;
69594;SDS011;56800;52.142;5.364;2024-03-07T08:30:29;33.78;;;19.58;;
69594;SDS011;56800;52.142;5.364;2024-03-07T08:32:57;32.90;;;17.83;;
69594;SDS011;56800;52.142;5.364;2024-03-07T08:35:25;28.02;;;17.95;;
69594;SDS011;56800;52.142;5.364;2024-03-07T08:37:53;33.45;;;18.35;;
69594;SDS011;56800;52.142;5.364;2024-03-07T08:40:22;30.55;;;18.05;;
69594;SDS011;56800;52.142;5.364;2024-03-07T08:42:54;29.73;;;18.50;;
69594;SDS011;56800;52.142;5.364;2024-03-07T08:45:24;26.37;;;17.37;;
69594;SDS011;56800;52.142;5.364;2024-03-07T08:47:52;23.33;;;16.17;;
69594;SDS011;56800;52.142;5.364;2024-03-07T08:50:25;26.67;;;16.95;;
69594;SDS011;56800;52.142;5.364;2024-03-07T08:52:53;26.02;;;16.08;;
69594;SDS011;56800;52.142;5.364;2024-03-07T08:55:23;22.98;;;15.50;;
69594;SDS011;56800;52.142;5.364;2024-03-07T08:57:53;26.50;;;15.60;;
69594;SDS011;56800;52.142;5.364;2024-03-07T09:00:20;24.77;;;16.20;;
69594;SDS011;56800;52.142;5.364;2024-03-07T09:02:53;22.30;;;12.75;;
69594;SDS011;56800;52.142;5.364;2024-03-07T09:05:22;20.70;;;13.32;;
69594;SDS011;56800;52.142;5.364;2024-03-07T09:07:54;22.55;;;13.60;;
69594;SDS011;56800;52.142;5.364;2024-03-07T09:10:21;21.27;;;13.60;;
69594;SDS011;56800;52.142;5.364;2024-03-07T09:12:49;16.42;;;11.88;;
69594;SDS011;56800;52.142;5.364;2024-03-07T09:15:17;19.30;;;12.85;;
69594;SDS011;56800;52.142;5.364;2024-03-07T09:17:45;18.27;;;12.63;;
69594;SDS011;56800;52.142;5.364;2024-03-07T09:20:13;18.85;;;12.93;;
69594;SDS011;56800;52.142;5.364;2024-03-07T09:22:46;15.70;;;12.03;;
69594;SDS011;56800;52.142;5.364;2024-03-07T09:25:14;20.05;;;13.00;;
69594;SDS011;56800;52.142;5.364;2024-03-07T09:27:43;17.58;;;12.02;;
69594;SDS011;56800;52.142;5.364;2024-03-07T09:30:10;18.23;;;12.68;;
69594;SDS011;56800;52.142;5.364;2024-03-07T09:32:45;18.00;;;13.18;;
69594;SDS011;56800;52.142;5.364;2024-03-07T09:35:12;17.80;;;12.87;;
69594;SDS011;56800;52.142;5.364;2024-03-07T09:37:40;16.52;;;12.75;;
69594;SDS011;56800;52.142;5.364;2024-03-07T09:40:09;18.95;;;12.07;;
69594;SDS011;56800;52.142;5.364;2024-03-07T09:42:45;15.27;;;11.77;;
69594;SDS011;56800;52.142;5.364;2024-03-07T09:45:15;18.55;;;13.00;;
69594;SDS011;56800;52.142;5.364;2024-03-07T09:47:45;17.50;;;12.00;;
69594;SDS011;56800;52.142;5.364;2024-03-07T09:50:17;17.38;;;11.70;;
69594;SDS011;56800;52.142;5.364;2024-03-07T09:52:48;18.52;;;12.52;;
69594;SDS011;56800;52.142;5.364;2024-03-07T09:55:19;16.15;;;12.15;;
69594;SDS011;56800;52.142;5.364;2024-03-07T09:57:47;17.48;;;12.82;;
69594;SDS011;56800;52.142;5.364;2024-03-07T10:00:18;17.50;;;12.87;;
69594;SDS011;56800;52.142;5.364;2024-03-07T10:02:51;19.02;;;12.77;;
69594;SDS011;56800;52.142;5.364;2024-03-07T10:05:22;16.20;;;12.63;;
69594;SDS011;56800;52.142;5.364;2024-03-07T10:07:51;21.75;;;13.98;;
69594;SDS011;56800;52.142;5.364;2024-03-07T10:10:19;16.35;;;12.02;;
69594;SDS011;56800;52.142;5.364;2024-03-07T10:12:48;17.60;;;12.90;;
69594;SDS011;56800;52.142;5.364;2024-03-07T10:15:16;17.33;;;12.82;;
69594;SDS011;56800;52.142;5.364;2024-03-07T10:17:44;17.60;;;13.05;;
69594;SDS011;56800;52.142;5.364;2024-03-07T10:20:13;18.42;;;12.98;;
69594;SDS011;56800;52.142;5.364;2024-03-07T10:22:41;19.70;;;13.57;;
69594;SDS011;56800;52.142;5.364;2024-03-07T10:25:08;21.90;;;13.30;;
69594;SDS011;56800;52.142;5.364;2024-03-07T10:27:36;22.08;;;13.77;;
69594;SDS011;56800;52.142;5.364;2024-03-07T10:30:04;17.73;;;13.35;;
69594;SDS011;56800;52.142;5.364;2024-03-07T10:32:34;19.13;;;13.70;;
69594;SDS011;56800;52.142;5.364;2024-03-07T10:35:02;20.33;;;14.52;;
69594;SDS011;56800;52.142;5.364;2024-03-07T10:37:30;21.17;;;14.63;;
69594;SDS011;56800;52.142;5.364;2024-03-07T10:39:57;19.50;;;13.57;;
69594;SDS011;56800;52.142;5.364;2024-03-07T10:42:24;25.20;;;14.48;;
69594;SDS011;56800;52.142;5.364;2024-03-07T10:44:58;20.85;;;14.65;;
69594;SDS011;56800;52.142;5.364;2024-03-07T10:47:30;19.38;;;14.15;;
69594;SDS011;56800;52.142;5.364;2024-03-07T10:52:51;22.23;;;12.93;;
69594;SDS011;56800;52.142;5.364;2024-03-07T11:01:03;17.73;;;12.25;;
69594;SDS011;56800;52.142;5.364;2024-03-07T11:03:32;19.13;;;12.60;;
69594;SDS011;56800;52.142;5.364;2024-03-07T11:06:05;18.13;;;12.18;;
69594;SDS011;56800;52.142;5.364;2024-03-07T11:08:38;20.40;;;12.20;;
69594;SDS011;56800;52.142;5.364;2024-03-07T11:11:06;19.52;;;12.25;;
69594;SDS011;56800;52.142;5.364;2024-03-07T11:13:33;20.45;;;12.52;;
69594;SDS011;56800;52.142;5.364;2024-03-07T11:16:04;19.77;;;12.33;;
69594;SDS011;56800;52.142;5.364;2024-03-07T11:18:32;19.50;;;12.75;;
69594;SDS011;56800;52.142;5.364;2024-03-07T11:20:59;20.02;;;12.90;;
69594;SDS011;56800;52.142;5.364;2024-03-07T11:23:30;20.67;;;12.52;;
69594;SDS011;56800;52.142;5.364;2024-03-07T11:26:08;19.10;;;11.98;;
69594;SDS011;56800;52.142;5.364;2024-03-07T11:28:38;19.20;;;13.27;;
69594;SDS011;56800;52.142;5.364;2024-03-07T11:31:16;22.00;;;13.77;;
69594;SDS011;56800;52.142;5.364;2024-03-07T11:36:41;21.83;;;13.15;;
69594;SDS011;56800;52.142;5.364;2024-03-07T11:39:38;19.52;;;12.45;;
69594;SDS011;56800;52.142;5.364;2024-03-07T11:44:55;20.92;;;13.45;;
69594;SDS011;56800;52.142;5.364;2024-03-07T11:47:24;19.05;;;12.70;;
69594;SDS011;56800;52.142;5.364;2024-03-07T11:49:55;20.88;;;13.40;;
69594;SDS011;56800;52.142;5.364;2024-03-07T11:52:24;21.58;;;13.70;;
69594;SDS011;56800;52.142;5.364;2024-03-07T11:54:54;19.70;;;13.40;;
69594;SDS011;56800;52.142;5.364;2024-03-07T11:57:30;20.83;;;13.18;;
69594;SDS011;56800;52.142;5.364;2024-03-07T12:00:00;22.48;;;13.82;;
69594;SDS011;56800;52.142;5.364;2024-03-07T12:02:36;21.13;;;13.90;;
69594;SDS011;56800;52.142;5.364;2024-03-07T12:05:04;20.92;;;12.57;;
69594;SDS011;56800;52.142;5.364;2024-03-07T12:07:32;21.20;;;13.10;;
69594;SDS011;56800;52.142;5.364;2024-03-07T12:10:00;21.95;;;12.43;;
69594;SDS011;56800;52.142;5.364;2024-03-07T12:12:30;21.90;;;13.00;;
69594;SDS011;56800;52.142;5.364;2024-03-07T12:14:59;18.67;;;12.20;;
69594;SDS011;56800;52.142;5.364;2024-03-07T12:17:29;20.40;;;12.57;;
69594;SDS011;56800;52.142;5.364;2024-03-07T12:19:58;21.07;;;12.43;;
69594;SDS011;56800;52.142;5.364;2024-03-07T12:22:47;18.48;;;12.52;;
69594;SDS011;56800;52.142;5.364;2024-03-07T12:25:17;19.25;;;12.35;;
69594;SDS011;56800;52.142;5.364;2024-03-07T12:27:58;21.15;;;12.25;;
69594;SDS011;56800;52.142;5.364;2024-03-07T12:30:32;18.30;;;11.52;;
69594;SDS011;56800;52.142;5.364;2024-03-07T12:33:01;17.00;;;11.60;;
69594;SDS011;56800;52.142;5.364;2024-03-07T12:35:33;20.83;;;12.95;;
69594;SDS011;56800;52.142;5.364;2024-03-07T12:38:01;20.92;;;12.07;;
69594;SDS011;56800;52.142;5.364;2024-03-07T12:40:35;21.70;;;11.93;;
69594;SDS011;56800;52.142;5.364;2024-03-07T12:43:18;17.90;;;12.15;;
69594;SDS011;56800;52.142;5.364;2024-03-07T12:45:49;16.53;;;11.33;;
69594;SDS011;56800;52.142;5.364;2024-03-07T12:48:18;18.83;;;12.23;;
69594;SDS011;56800;52.142;5.364;2024-03-07T12:50:48;19.05;;;12.25;;
69594;SDS011;56800;52.142;5.364;2024-03-07T12:53:20;23.13;;;13.00;;
69594;SDS011;56800;52.142;5.364;2024-03-07T12:55:48;19.73;;;12.27;;
69594;SDS011;56800;52.142;5.364;2024-03-07T12:58:15;18.13;;;13.13;;
69594;SDS011;56800;52.142;5.364;2024-03-07T13:00:43;17.52;;;11.75;;
69594;SDS011;56800;52.142;5.364;2024-03-07T13:03:10;17.45;;;11.77;;
69594;SDS011;56800;52.142;5.364;2024-03-07T13:05:37;16.45;;;11.82;;
69594;SDS011;56800;52.142;5.364;2024-03-07T13:08:09;19.27;;;12.18;;
69594;SDS011;56800;52.142;5.364;2024-03-07T13:10:39;17.60;;;12.57;;
69594;SDS011;56800;52.142;5.364;2024-03-07T13:13:08;20.13;;;12.68;;
69594;SDS011;56800;52.142;5.364;2024-03-07T13:15:38;18.50;;;11.90;;
69594;SDS011;56800;52.142;5.364;2024-03-07T13:18:06;18.55;;;11.73;;
69594;SDS011;56800;52.142;5.364;2024-03-07T13:20:34;19.65;;;12.30;;
69594;SDS011;56800;52.142;5.364;2024-03-07T13:23:02;16.67;;;10.83;;
69594;SDS011;56800;52.142;5.364;2024-03-07T13:25:29;18.25;;;11.35;;
69594;SDS011;56800;52.142;5.364;2024-03-07T13:28:03;16.58;;;10.77;;
69594;SDS011;56800;52.142;5.364;2024-03-07T13:30:51;19.52;;;11.73;;
69594;SDS011;56800;52.142;5.364;2024-03-07T13:33:21;18.20;;;11.48;;
69594;SDS011;56800;52.142;5.364;2024-03-07T13:35:51;16.73;;;11.73;;
69594;SDS011;56800;52.142;5.364;2024-03-07T13:38:19;16.73;;;11.32;;
69594;SDS011;56800;52.142;5.364;2024-03-07T13:40:48;17.05;;;11.50;;
69594;SDS011;56800;52.142;5.364;2024-03-07T13:43:16;19.40;;;11.77;;
69594;SDS011;56800;52.142;5.364;2024-03-07T13:45:44;18.20;;;12.40;;
69594;SDS011;56800;52.142;5.364;2024-03-07T13:48:11;16.23;;;11.47;;
69594;SDS011;56800;52.142;5.364;2024-03-07T13:50:43;15.65;;;11.48;;
69594;SDS011;56800;52.142;5.364;2024-03-07T13:53:24;17.88;;;12.10;;
69594;SDS011;56800;52.142;5.364;2024-03-07T13:58:48;17.58;;;11.85;;
69594;SDS011;56800;52.142;5.364;2024-03-07T14:02:13;19.00;;;12.43;;
69594;SDS011;56800;52.142;5.364;2024-03-07T14:07:50;16.35;;;11.90;;
69594;SDS011;56800;52.142;5.364;2024-03-07T14:13:49;17.38;;;11.68;;
69594;SDS011;56800;52.142;5.364;2024-03-07T14:22:27;16.70;;;12.20;;
69594;SDS011;56800;52.142;5.364;2024-03-07T14:25:19;17.92;;;11.88;;
69594;SDS011;56800;52.142;5.364;2024-03-07T14:31:12;16.57;;;11.53;;
69594;SDS011;56800;52.142;5.364;2024-03-07T14:36:35;16.15;;;10.60;;
69594;SDS011;56800;52.142;5.364;2024-03-07T14:39:05;16.83;;;11.13;;
69594;SDS011;56800;52.142;5.364;2024-03-07T14:41:43;14.43;;;10.68;;
69594;SDS011;56800;52.142;5.364;2024-03-07T14:44:11;15.63;;;11.17;;
69594;SDS011;56800;52.142;5.364;2024-03-07T14:46:45;16.20;;;10.75;;
69594;SDS011;56800;52.142;5.364;2024-03-07T14:49:14;15.50;;;10.60;;
69594;SDS011;56800;52.142;5.364;2024-03-07T14:51:44;16.90;;;11.35;;
69594;SDS011;56800;52.142;5.364;2024-03-07T14:54:25;16.48;;;11.90;;
69594;SDS011;56800;52.142;5.364;2024-03-07T14:56:53;17.90;;;12.53;;
69594;SDS011;56800;52.142;5.364;2024-03-07T14:59:20;18.17;;;11.80;;
69594;SDS011;56800;52.142;5.364;2024-03-07T15:01:47;16.63;;;11.43;;
69594;SDS011;56800;52.142;5.364;2024-03-07T15:04:15;15.43;;;11.18;;
69594;SDS011;56800;52.142;5.364;2024-03-07T15:06:42;15.32;;;10.63;;
69594;SDS011;56800;52.142;5.364;2024-03-07T15:09:10;17.10;;;10.73;;